Time;durP1;ratioP1;P1;durP2;ratioP2;P2;SDS_P1;SDS_P2;PMS_P1;PMS_P2;Temp;Humidity;BMP_temperature;BMP_pressure;BME280_temperature;BME280_humidity;BME280_pressure;Samples;Min_cycle;Max_cycle;Signal;HPM_P1;HPM_P2
2021/10/11 00:01:46;;;;;;;2.43;1.20;;;11.70;99.90;;;;;;4960655;28;20665;-88
2021/10/11 00:04:21;;;;;;;3.23;1.20;;;11.60;99.90;;;;;;4958533;29;20211;-88
2021/10/11 00:06:52;;;;;;;4.50;1.20;;;11.50;99.90;;;;;;4958239;29;20231;-88
2021/10/11 00:09:26;;;;;;;1.97;1.00;;;11.40;99.90;;;;;;4970672;28;20271;-88
2021/10/11 00:11:57;;;;;;;2.07;1.10;;;11.40;99.90;;;;;;4968384;28;20354;-87
2021/10/11 00:14:29;;;;;;;3.07;1.00;;;11.30;99.90;;;;;;4963257;28;20541;-87
2021/10/11 00:17:03;;;;;;;2.20;0.83;;;11.40;99.90;;;;;;4972657;28;20263;-87
2021/10/11 00:19:37;;;;;;;3.20;1.20;;;11.20;99.90;;;;;;4970668;28;20222;-87
2021/10/11 00:22:10;;;;;;;3.50;1.40;;;11.20;99.90;;;;;;4987816;28;20215;-88
2021/10/11 00:24:41;;;;;;;5.10;2.90;;;11.10;99.90;;;;;;4979334;28;20214;-88
2021/10/11 00:27:14;;;;;;;4.93;2.00;;;11.10;99.90;;;;;;4986859;28;20319;-88
2021/10/11 00:29:45;;;;;;;7.67;2.70;;;11.10;99.90;;;;;;4982146;28;20207;-88
2021/10/11 00:32:20;;;;;;;4.40;2.57;;;11.10;99.90;;;;;;4971748;28;20203;-88
2021/10/11 00:34:52;;;;;;;2.87;1.20;;;10.90;99.90;;;;;;4972441;28;20215;-88
2021/10/11 00:37:24;;;;;;;3.33;1.33;;;10.90;99.90;;;;;;4967059;29;20212;-88
2021/10/11 00:39:55;;;;;;;2.47;0.90;;;10.90;99.90;;;;;;4971015;28;20211;-88
2021/10/11 00:42:28;;;;;;;2.60;1.10;;;10.90;99.90;;;;;;4965103;28;20207;-93
2021/10/11 00:45:02;;;;;;;1.80;1.00;;;10.80;99.90;;;;;;4969771;28;20250;-91
2021/10/11 00:47:36;;;;;;;3.43;1.07;;;10.70;99.90;;;;;;4978714;28;20222;-92
2021/10/11 00:52:41;;;;;;;2.23;1.20;;;10.60;99.90;;;;;;4996613;28;20203;-90
2021/10/11 00:55:13;;;;;;;2.73;1.10;;;10.50;99.90;;;;;;4996631;28;20235;-91
2021/10/11 00:57:45;;;;;;;3.07;1.50;;;10.50;99.90;;;;;;5011274;28;20218;-92
2021/10/11 01:05:36;;;;;;;3.47;1.50;;;10.40;99.90;;;;;;5016801;23;20269;-93
2021/10/11 01:08:08;;;;;;;3.57;1.67;;;10.40;99.90;;;;;;5009446;28;20215;-93
2021/10/11 01:10:40;;;;;;;3.37;1.20;;;10.30;99.90;;;;;;4997900;28;20269;-93
2021/10/11 01:13:13;;;;;;;2.23;1.00;;;10.30;99.90;;;;;;5001542;28;20221;-92
2021/10/11 01:15:44;;;;;;;3.70;1.60;;;10.30;99.90;;;;;;4991651;28;20293;-93
2021/10/11 01:18:16;;;;;;;5.10;4.53;;;10.30;99.90;;;;;;4980585;28;20227;-91
2021/10/11 01:20:51;;;;;;;12.00;7.30;;;10.20;99.90;;;;;;4992019;28;20238;-93
2021/10/11 01:23:25;;;;;;;13.17;10.33;;;10.20;99.90;;;;;;4989335;28;20206;-89
2021/10/11 01:25:56;;;;;;;2.03;1.50;;;10.10;99.90;;;;;;4976250;28;20692;-91
2021/10/11 01:28:29;;;;;;;2.43;1.70;;;10.10;99.90;;;;;;4975310;28;21412;-91
2021/10/11 01:31:01;;;;;;;3.70;2.07;;;10.10;99.90;;;;;;4977856;28;20649;-91
2021/10/11 01:33:33;;;;;;;8.53;5.90;;;10.00;99.90;;;;;;4994182;28;20199;-92
2021/10/11 01:36:07;;;;;;;8.30;4.47;;;10.00;99.90;;;;;;4991155;28;20233;-93
2021/10/11 01:38:41;;;;;;;4.90;3.13;;;10.00;99.90;;;;;;4982401;28;20199;-91
2021/10/11 01:41:18;;;;;;;3.77;2.67;;;10.00;99.90;;;;;;4990297;28;20210;-90
2021/10/11 01:43:50;;;;;;;2.60;2.33;;;10.00;99.90;;;;;;4985014;28;20751;-91
2021/10/11 01:46:26;;;;;;;3.23;2.43;;;9.90;99.90;;;;;;4998514;28;20254;-90
2021/10/11 01:48:59;;;;;;;3.83;2.80;;;9.90;99.90;;;;;;4995347;28;20215;-94
2021/10/11 01:54:15;;;;;;;3.90;2.10;;;9.80;99.90;;;;;;4660916;23;10001487;-90
2021/10/11 01:56:49;;;;;;;7.03;2.30;;;9.70;99.90;;;;;;4999726;28;20211;-90
2021/10/11 01:59:20;;;;;;;3.37;1.80;;;9.70;99.90;;;;;;4997772;28;20255;-90
2021/10/11 02:01:53;;;;;;;5.37;1.60;;;9.60;99.90;;;;;;4997740;28;20426;-90
2021/10/11 02:04:25;;;;;;;3.13;1.73;;;9.60;99.90;;;;;;4995666;28;20254;-90
2021/10/11 02:06:57;;;;;;;3.10;2.07;;;9.60;99.90;;;;;;4992802;28;20556;-90
2021/10/11 02:09:30;;;;;;;4.37;3.03;;;9.60;99.90;;;;;;4981261;28;20196;-88
2021/10/11 02:12:02;;;;;;;5.57;2.57;;;9.60;99.90;;;;;;4992201;28;20199;-89
2021/10/11 02:14:36;;;;;;;3.97;2.30;;;9.60;99.90;;;;;;4998822;28;20211;-89
2021/10/11 02:17:08;;;;;;;3.33;2.33;;;9.50;99.90;;;;;;4978387;28;20217;-89
2021/10/11 02:19:39;;;;;;;3.43;2.33;;;9.60;99.90;;;;;;4976949;28;20230;-89
2021/10/11 02:22:12;;;;;;;4.43;1.87;;;9.60;99.90;;;;;;5024781;23;20242;-90
2021/10/11 02:24:47;;;;;;;4.60;2.20;;;9.50;99.90;;;;;;4993446;28;20337;-90
2021/10/11 02:27:18;;;;;;;3.70;1.67;;;9.70;99.90;;;;;;4992389;28;20246;-89
2021/10/11 02:29:50;;;;;;;3.83;1.73;;;9.60;99.90;;;;;;4994497;28;20207;-89
2021/10/11 02:32:23;;;;;;;2.60;1.93;;;9.50;99.90;;;;;;4994413;28;20211;-89
2021/10/11 02:51:18;;;;;;;2.80;2.40;;;9.10;99.90;;;;;;4975431;28;20214;-91
2021/10/11 02:53:52;;;;;;;5.10;2.30;;;9.10;99.90;;;;;;4973475;28;20215;-92
2021/10/11 02:56:24;;;;;;;2.30;2.10;;;9.00;99.90;;;;;;5061838;23;20843;-92
2021/10/11 02:58:57;;;;;;;3.57;2.20;;;9.00;99.90;;;;;;5015818;28;20205;-91
2021/10/11 03:04:04;;;;;;;4.77;2.07;;;8.90;99.90;;;;;;4996731;28;20340;-93
2021/10/11 03:06:37;;;;;;;4.63;2.10;;;8.90;99.90;;;;;;4991057;28;20194;-93
2021/10/11 03:09:09;;;;;;;2.70;1.97;;;8.80;99.90;;;;;;4986283;28;20252;-92
2021/10/11 03:11:41;;;;;;;4.30;2.17;;;8.90;99.90;;;;;;4979935;28;20246;-90
2021/10/11 03:14:13;;;;;;;6.63;2.27;;;8.90;99.90;;;;;;4975757;28;20199;-91
2021/10/11 03:16:45;;;;;;;5.10;2.97;;;8.90;99.90;;;;;;4986746;28;20210;-90
2021/10/11 03:19:20;;;;;;;8.87;3.00;;;8.90;99.90;;;;;;4995954;28;20202;-90
2021/10/11 03:21:54;;;;;;;4.20;2.40;;;9.00;99.90;;;;;;4994822;28;20198;-90
2021/10/11 03:24:26;;;;;;;3.60;2.10;;;9.10;99.90;;;;;;4995963;28;20222;-90
2021/10/11 03:26:58;;;;;;;4.70;2.17;;;9.10;99.90;;;;;;4996689;28;20203;-90
2021/10/11 03:32:08;;;;;;;3.17;2.00;;;9.10;99.90;;;;;;4975204;29;20231;-90
2021/10/11 03:34:39;;;;;;;4.67;2.10;;;9.10;99.90;;;;;;4974907;28;20211;-91
2021/10/11 03:37:17;;;;;;;6.17;2.27;;;9.10;99.90;;;;;;4951890;29;20208;-90
2021/10/11 03:39:50;;;;;;;3.87;2.40;;;9.10;99.90;;;;;;4957914;29;20214;-89
2021/10/11 03:47:39;;;;;;;3.53;2.17;;;9.10;99.90;;;;;;4992324;28;20245;-91
2021/10/11 03:50:11;;;;;;;4.77;2.40;;;9.00;99.90;;;;;;4981272;28;20212;-91
2021/10/11 03:52:49;;;;;;;6.70;2.30;;;9.00;99.90;;;;;;4972075;28;20204;-91
2021/10/11 03:55:21;;;;;;;4.83;2.43;;;8.90;99.90;;;;;;4978077;28;20207;-88
2021/10/11 03:57:53;;;;;;;4.73;2.37;;;8.90;99.90;;;;;;4987599;28;20212;-89
2021/10/11 04:00:27;;;;;;;4.77;2.63;;;8.90;99.90;;;;;;4978416;28;20250;-91
2021/10/11 04:03:01;;;;;;;7.47;2.20;;;8.90;99.90;;;;;;4975493;28;20208;-90
2021/10/11 04:05:33;;;;;;;2.93;1.90;;;8.90;99.90;;;;;;4974588;28;20211;-91
2021/10/11 04:08:11;;;;;;;4.57;2.47;;;8.80;99.90;;;;;;4968878;28;20287;-91
2021/10/11 04:10:51;;;;;;;5.87;2.10;;;8.80;99.90;;;;;;4973113;28;20611;-90
2021/10/11 04:13:23;;;;;;;6.03;2.03;;;8.80;99.90;;;;;;4973705;28;20235;-90
2021/10/11 04:15:54;;;;;;;3.73;2.30;;;8.80;99.90;;;;;;4970805;28;20203;-89
2021/10/11 04:18:26;;;;;;;3.43;2.00;;;8.80;99.90;;;;;;4971477;28;20270;-89
2021/10/11 04:20:57;;;;;;;3.60;1.90;;;8.80;99.90;;;;;;4955783;29;20223;-90
2021/10/11 04:23:32;;;;;;;6.57;2.00;;;8.80;99.90;;;;;;4953958;29;20209;-88
2021/10/11 04:26:09;;;;;;;3.93;2.00;;;8.80;99.90;;;;;;4951877;29;20215;-89
2021/10/11 04:28:40;;;;;;;4.13;1.70;;;8.80;99.90;;;;;;4953146;29;20235;-90
2021/10/11 04:31:15;;;;;;;2.90;1.87;;;8.90;99.90;;;;;;4954271;29;20248;-89
2021/10/11 04:33:49;;;;;;;2.63;1.77;;;8.90;99.90;;;;;;4937440;29;20212;-91
2021/10/11 04:36:24;;;;;;;4.70;1.80;;;8.90;99.90;;;;;;4952202;29;20215;-90
2021/10/11 04:38:57;;;;;;;5.20;1.97;;;8.90;99.90;;;;;;4954936;29;20211;-90
2021/10/11 04:41:33;;;;;;;6.57;2.13;;;8.80;99.90;;;;;;4952168;29;20226;-91
2021/10/11 04:44:07;;;;;;;4.50;2.43;;;8.80;99.90;;;;;;4956033;29;20212;-91
2021/10/11 04:46:38;;;;;;;4.03;2.30;;;8.80;99.90;;;;;;4955800;28;20254;-91
2021/10/11 04:49:10;;;;;;;5.83;2.03;;;8.70;99.90;;;;;;4951993;29;20255;-90
2021/10/11 04:51:42;;;;;;;4.47;2.23;;;8.60;99.90;;;;;;4957189;28;20220;-89
2021/10/11 04:54:19;;;;;;;5.07;1.97;;;8.60;99.90;;;;;;4952319;29;20219;-89
2021/10/11 04:56:53;;;;;;;5.10;1.90;;;8.50;99.90;;;;;;4947945;29;20219;-89
2021/10/11 04:59:28;;;;;;;5.37;1.70;;;8.50;99.90;;;;;;4942457;29;20212;-89
2021/10/11 05:02:00;;;;;;;3.77;1.90;;;8.50;99.90;;;;;;4941568;29;20239;-90
2021/10/11 05:04:32;;;;;;;5.47;1.73;;;8.40;99.90;;;;;;4943270;29;20223;-89
2021/10/11 05:07:03;;;;;;;7.37;2.00;;;8.30;99.90;;;;;;4941930;29;20219;-90
2021/10/11 05:09:40;;;;;;;4.07;1.77;;;8.30;99.90;;;;;;4947366;29;20235;-90
2021/10/11 05:12:12;;;;;;;5.13;1.90;;;8.20;99.90;;;;;;4947926;29;20222;-89
2021/10/11 05:14:43;;;;;;;4.77;2.00;;;8.20;99.90;;;;;;4944460;29;20572;-90
2021/10/11 05:17:14;;;;;;;5.37;2.33;;;8.20;99.90;;;;;;4948344;29;20243;-89
2021/10/11 05:19:45;;;;;;;5.40;1.80;;;8.20;99.90;;;;;;4951600;29;20208;-89
2021/10/11 05:22:17;;;;;;;3.83;1.83;;;8.10;99.90;;;;;;5048359;23;20224;-91
2021/10/11 05:24:50;;;;;;;3.70;1.90;;;8.00;99.90;;;;;;5016669;28;20237;-92
2021/10/11 05:27:22;;;;;;;3.87;1.80;;;8.00;99.90;;;;;;5017493;28;20218;-89
2021/10/11 05:29:53;;;;;;;4.03;2.47;;;8.00;99.90;;;;;;5016964;28;20237;-89
2021/10/11 05:32:26;;;;;;;5.20;2.07;;;7.90;99.90;;;;;;5014640;28;20209;-89
2021/10/11 05:34:58;;;;;;;5.13;1.70;;;7.80;99.90;;;;;;5002532;28;20212;-89
2021/10/11 05:37:31;;;;;;;4.47;1.87;;;7.80;99.90;;;;;;5011077;28;20242;-89
2021/10/11 05:40:05;;;;;;;4.97;2.10;;;7.80;99.90;;;;;;5006909;28;20224;-90
2021/10/11 05:42:38;;;;;;;4.60;2.17;;;7.70;99.90;;;;;;4993868;28;20684;-90
2021/10/11 05:45:11;;;;;;;3.53;2.40;;;7.70;99.90;;;;;;4987889;28;20202;-90
2021/10/11 05:47:42;;;;;;;4.10;2.40;;;7.60;99.90;;;;;;4998085;28;20215;-90
2021/10/11 05:50:13;;;;;;;5.07;2.37;;;7.50;99.90;;;;;;5001280;28;20265;-90
2021/10/11 05:52:44;;;;;;;4.23;2.40;;;7.50;99.90;;;;;;4999633;28;20257;-90
2021/10/11 05:55:18;;;;;;;10.53;6.07;;;7.40;99.90;;;;;;5001101;28;20291;-90
2021/10/11 05:57:49;;;;;;;9.80;4.40;;;7.40;99.90;;;;;;5002775;28;20222;-89
2021/10/11 06:00:20;;;;;;;8.43;4.90;;;7.30;99.90;;;;;;4998526;28;20206;-89
2021/10/11 06:02:51;;;;;;;6.83;4.63;;;7.30;99.90;;;;;;5001853;28;20237;-90
2021/10/11 06:05:23;;;;;;;7.93;3.83;;;7.30;99.90;;;;;;5005686;28;20245;-90
2021/10/11 06:07:55;;;;;;;5.67;4.17;;;7.30;99.90;;;;;;5001084;28;20241;-90
2021/10/11 06:10:29;;;;;;;15.93;11.93;;;7.30;99.90;;;;;;5001073;28;20242;-90
2021/10/11 06:13:02;;;;;;;13.07;11.77;;;7.30;99.90;;;;;;5000954;28;20209;-89
2021/10/11 06:15:33;;;;;;;14.27;12.03;;;7.30;99.90;;;;;;4985096;28;20260;-89
2021/10/11 06:18:04;;;;;;;15.43;12.33;;;7.30;99.90;;;;;;4981462;28;20211;-90
2021/10/11 06:20:36;;;;;;;15.93;12.33;;;7.30;99.90;;;;;;4982308;28;20234;-89
2021/10/11 06:23:12;;;;;;;14.07;10.23;;;7.40;99.90;;;;;;4997090;28;20218;-89
2021/10/11 06:25:46;;;;;;;12.40;9.53;;;7.20;99.90;;;;;;4980266;28;20675;-88
2021/10/11 06:28:19;;;;;;;14.30;8.73;;;7.20;99.90;;;;;;4990359;28;20208;-89
2021/10/11 06:30:51;;;;;;;10.63;8.37;;;7.20;99.90;;;;;;4982148;28;20219;-90
2021/10/11 06:33:24;;;;;;;10.33;7.30;;;7.10;99.90;;;;;;4966766;28;20220;-89
2021/10/11 06:35:56;;;;;;;8.20;6.77;;;7.10;99.90;;;;;;4965481;28;20212;-89
2021/10/11 06:38:27;;;;;;;7.37;4.13;;;7.10;99.90;;;;;;4960664;28;20214;-89
2021/10/11 06:41:01;;;;;;;11.50;4.87;;;7.00;99.90;;;;;;4964940;28;20226;-90
2021/10/11 06:43:34;;;;;;;10.23;5.60;;;7.10;99.90;;;;;;4984401;28;20220;-89
2021/10/11 06:46:06;;;;;;;5.40;4.57;;;7.10;99.90;;;;;;4991783;28;20207;-90
2021/10/11 06:48:37;;;;;;;8.23;4.57;;;7.10;99.90;;;;;;4974778;28;20712;-90
2021/10/11 06:51:10;;;;;;;5.77;3.57;;;7.00;99.90;;;;;;4989862;28;20225;-89
2021/10/11 06:53:42;;;;;;;5.57;2.20;;;6.90;99.90;;;;;;4994103;28;20215;-89
2021/10/11 06:56:16;;;;;;;5.53;2.13;;;7.10;99.90;;;;;;4994436;28;20211;-88
2021/10/11 06:58:50;;;;;;;4.67;2.23;;;7.10;99.90;;;;;;4998236;28;20198;-88
2021/10/11 07:01:26;;;;;;;6.83;2.40;;;7.10;99.90;;;;;;4996579;28;20207;-89
2021/10/11 07:03:58;;;;;;;6.27;2.20;;;7.10;99.90;;;;;;4980010;28;20209;-89
2021/10/11 07:06:30;;;;;;;8.80;2.07;;;7.10;99.90;;;;;;4962440;28;20203;-89
2021/10/11 07:09:01;;;;;;;3.90;1.60;;;7.20;99.90;;;;;;4979979;28;20230;-89
2021/10/11 07:11:35;;;;;;;5.90;2.03;;;7.20;99.90;;;;;;4979339;28;20264;-90
2021/10/11 07:14:07;;;;;;;5.13;1.60;;;7.30;99.90;;;;;;4980368;28;20204;-90
2021/10/11 07:16:52;;;;;;;4.73;1.63;;;7.30;99.90;;;;;;4978676;28;20653;-89
2021/10/11 07:19:23;;;;;;;7.47;1.90;;;7.30;99.90;;;;;;4979637;28;20663;-89
2021/10/11 07:21:55;;;;;;;4.67;1.73;;;7.30;99.90;;;;;;4979308;28;20234;-90
2021/10/11 07:24:26;;;;;;;5.07;1.40;;;7.40;99.90;;;;;;4983131;28;20581;-90
2021/10/11 07:26:59;;;;;;;5.03;1.57;;;7.40;99.90;;;;;;4979392;28;20240;-90
2021/10/11 07:29:31;;;;;;;4.73;1.60;;;7.40;99.90;;;;;;4991607;28;20223;-90
2021/10/11 07:32:02;;;;;;;5.60;1.60;;;7.40;99.90;;;;;;4997256;28;20273;-90
2021/10/11 07:34:33;;;;;;;3.60;1.33;;;7.40;99.90;;;;;;5005313;28;20183;-90
2021/10/11 07:37:05;;;;;;;3.67;1.57;;;7.40;99.90;;;;;;5000222;28;20238;-90
2021/10/11 07:39:36;;;;;;;3.97;1.40;;;7.50;99.90;;;;;;5000402;28;20661;-90
2021/10/11 07:42:09;;;;;;;2.63;1.50;;;7.50;99.90;;;;;;4967526;28;20244;-91
2021/10/11 07:44:42;;;;;;;6.43;1.40;;;7.60;99.90;;;;;;4994953;28;20248;-91
2021/10/11 07:47:13;;;;;;;7.80;1.97;;;7.60;99.90;;;;;;4998359;28;20199;-91
2021/10/11 07:49:45;;;;;;;5.50;1.50;;;7.70;99.90;;;;;;4994813;28;20262;-90
2021/10/11 07:52:16;;;;;;;4.23;1.73;;;7.70;99.90;;;;;;4987156;28;20663;-88
2021/10/11 07:54:47;;;;;;;6.07;1.60;;;7.80;99.90;;;;;;4981852;28;20207;-94
2021/10/11 07:57:21;;;;;;;6.47;1.57;;;7.80;99.90;;;;;;4962399;28;20293;-91
2021/10/11 07:59:53;;;;;;;8.47;1.73;;;7.90;99.90;;;;;;4959832;28;20219;-89
2021/10/11 08:02:24;;;;;;;6.17;1.60;;;7.90;99.90;;;;;;4977768;28;20237;-90
2021/10/11 08:04:56;;;;;;;6.83;1.83;;;7.90;99.90;;;;;;4978479;28;20215;-90
2021/10/11 08:07:27;;;;;;;4.77;1.67;;;7.90;99.90;;;;;;4977844;28;20260;-89
2021/10/11 08:09:58;;;;;;;5.83;1.57;;;7.90;99.90;;;;;;4985683;28;20240;-89
2021/10/11 08:12:33;;;;;;;7.03;2.17;;;7.90;99.90;;;;;;4997936;28;20676;-89
2021/10/11 08:15:07;;;;;;;3.80;1.40;;;7.90;99.90;;;;;;4997319;28;20213;-89
2021/10/11 08:17:38;;;;;;;7.63;2.17;;;7.90;99.90;;;;;;4998366;28;20249;-90
2021/10/11 08:20:11;;;;;;;8.27;2.00;;;7.70;99.90;;;;;;4986230;28;20213;-91
2021/10/11 08:22:42;;;;;;;6.13;1.57;;;7.60;99.90;;;;;;4977690;28;20242;-89
2021/10/11 08:25:16;;;;;;;4.13;1.37;;;7.50;99.90;;;;;;4986296;28;20276;-89
2021/10/11 08:27:49;;;;;;;4.40;1.20;;;7.50;99.90;;;;;;4981003;28;20617;-89
2021/10/11 08:30:21;;;;;;;3.27;1.20;;;7.40;99.90;;;;;;4977766;28;20595;-89
2021/10/11 08:32:52;;;;;;;6.80;1.30;;;7.30;99.90;;;;;;4979019;28;20235;-89
2021/10/11 08:35:24;;;;;;;5.23;1.10;;;7.20;99.90;;;;;;4977218;28;20281;-88
2021/10/11 08:37:55;;;;;;;4.03;1.10;;;7.20;99.90;;;;;;4978248;28;20214;-89
2021/10/11 08:40:27;;;;;;;7.70;1.50;;;7.10;99.90;;;;;;4978026;28;20214;-89
2021/10/11 08:43:02;;;;;;;4.87;1.50;;;7.10;99.90;;;;;;4978161;28;20223;-90
2021/10/11 08:45:33;;;;;;;8.30;1.60;;;7.10;99.90;;;;;;4978029;28;20702;-91
2021/10/11 08:48:05;;;;;;;6.83;1.70;;;7.00;99.90;;;;;;4978057;28;20265;-91
2021/10/11 08:50:37;;;;;;;3.93;1.00;;;7.00;99.90;;;;;;4978557;28;20238;-90
2021/10/11 08:53:13;;;;;;;5.80;1.20;;;7.00;99.90;;;;;;4978012;28;20215;-90
2021/10/11 08:55:45;;;;;;;5.33;0.90;;;6.90;99.90;;;;;;4971977;28;20257;-89
2021/10/11 08:58:19;;;;;;;6.43;1.17;;;6.90;99.90;;;;;;4975596;28;20209;-90
2021/10/11 09:00:50;;;;;;;3.43;1.00;;;6.80;99.90;;;;;;4979871;28;20211;-91
2021/10/11 09:03:22;;;;;;;4.63;1.07;;;6.80;99.90;;;;;;4979206;28;20214;-91
2021/10/11 09:06:04;;;;;;;8.03;1.47;;;6.80;99.90;;;;;;4976712;28;20301;-91
2021/10/11 09:08:36;;;;;;;5.37;1.63;;;6.80;99.90;;;;;;4977697;28;20876;-91
2021/10/11 09:11:09;;;;;;;8.47;1.10;;;6.80;99.90;;;;;;4977380;28;20243;-92
2021/10/11 09:13:45;;;;;;;4.80;1.10;;;6.90;99.90;;;;;;4977690;28;20263;-90
2021/10/11 09:16:22;;;;;;;1.97;0.80;;;6.90;99.90;;;;;;4976191;28;20669;-90
2021/10/11 09:18:55;;;;;;;3.50;0.90;;;6.90;99.90;;;;;;4976790;28;20639;-91
2021/10/11 09:21:33;;;;;;;2.60;0.90;;;6.90;99.90;;;;;;4977629;28;20648;-91
2021/10/11 09:24:06;;;;;;;7.30;1.50;;;6.90;99.90;;;;;;4977462;28;20226;-91
2021/10/11 09:26:44;;;;;;;6.47;0.93;;;7.00;99.90;;;;;;4976646;28;20230;-90
2021/10/11 09:29:29;;;;;;;5.13;0.93;;;7.00;99.90;;;;;;4981607;28;20205;-90
2021/10/11 09:32:02;;;;;;;4.80;1.30;;;7.00;99.90;;;;;;4996775;28;20238;-90
2021/10/11 09:34:35;;;;;;;3.80;0.97;;;7.00;99.90;;;;;;5000676;28;20205;-90
2021/10/11 09:37:08;;;;;;;1.67;0.90;;;7.00;99.90;;;;;;5000755;28;20226;-90
2021/10/11 09:39:41;;;;;;;4.57;1.37;;;7.00;99.90;;;;;;4992236;28;20199;-89
2021/10/11 09:42:16;;;;;;;5.63;1.50;;;7.10;99.90;;;;;;5001008;28;20237;-91
2021/10/11 09:44:57;;;;;;;5.83;1.33;;;7.10;99.90;;;;;;4995219;28;20208;-92
2021/10/11 09:47:31;;;;;;;4.93;1.30;;;7.10;99.90;;;;;;4964165;28;20209;-91
2021/10/11 09:50:05;;;;;;;2.47;1.20;;;7.20;99.90;;;;;;4980968;28;20577;-89
2021/10/11 09:52:36;;;;;;;2.57;1.23;;;7.20;99.90;;;;;;4981743;28;20207;-91
2021/10/11 09:55:09;;;;;;;4.23;0.90;;;7.20;99.90;;;;;;4980103;28;20226;-91
2021/10/11 09:57:41;;;;;;;1.87;1.10;;;7.10;99.90;;;;;;4976677;28;20214;-90
2021/10/11 10:00:16;;;;;;;6.40;1.20;;;7.20;99.90;;;;;;4987049;28;20207;-90
2021/10/11 10:02:47;;;;;;;2.57;1.10;;;7.10;99.90;;;;;;4984630;28;20226;-90
2021/10/11 10:05:26;;;;;;;4.43;1.07;;;7.10;99.90;;;;;;4995369;28;20209;-90
2021/10/11 10:07:59;;;;;;;3.23;0.90;;;7.00;99.90;;;;;;4988447;28;20221;-91
2021/10/11 10:10:32;;;;;;;2.33;0.93;;;7.00;99.90;;;;;;4986436;28;20250;-91
2021/10/11 10:13:14;;;;;;;2.30;1.07;;;7.00;99.90;;;;;;4979291;28;20211;-91
2021/10/11 10:15:51;;;;;;;1.77;1.03;;;6.90;99.90;;;;;;4980200;28;20298;-91
2021/10/11 10:18:24;;;;;;;3.77;1.20;;;6.90;99.90;;;;;;4988731;28;20261;-92
2021/10/11 10:20:57;;;;;;;2.27;1.03;;;6.90;99.90;;;;;;4981265;28;20237;-91
2021/10/11 10:23:30;;;;;;;4.57;1.40;;;6.90;99.90;;;;;;4968588;28;20229;-90
2021/10/11 10:26:02;;;;;;;2.83;1.40;;;6.90;99.90;;;;;;4980098;28;20238;-91
2021/10/11 10:28:45;;;;;;;3.87;1.67;;;7.00;99.90;;;;;;4980294;28;20211;-90
2021/10/11 10:31:28;;;;;;;4.20;1.00;;;7.00;99.90;;;;;;4980050;28;20720;-90
2021/10/11 10:34:01;;;;;;;2.63;1.10;;;7.00;99.90;;;;;;4981151;28;20226;-90
2021/10/11 10:36:33;;;;;;;2.80;1.07;;;7.00;99.90;;;;;;4980189;28;20250;-89
2021/10/11 10:39:07;;;;;;;4.97;1.30;;;7.10;99.90;;;;;;4980252;28;20218;-90
2021/10/11 10:41:40;;;;;;;5.03;0.93;;;7.00;99.90;;;;;;4963694;28;20255;-90
2021/10/11 10:44:17;;;;;;;1.97;1.10;;;7.10;99.90;;;;;;4961614;28;20210;-90
2021/10/11 10:46:56;;;;;;;2.50;1.00;;;7.00;99.90;;;;;;4960780;28;20243;-89
2021/10/11 10:49:33;;;;;;;1.77;1.03;;;7.00;99.90;;;;;;4974421;28;20217;-90
2021/10/11 10:52:12;;;;;;;5.13;1.00;;;7.00;99.90;;;;;;4983868;28;20229;-91
2021/10/11 10:54:44;;;;;;;3.00;1.40;;;7.00;99.90;;;;;;4982598;28;20231;-91
2021/10/11 10:57:19;;;;;;;1.70;0.97;;;7.00;99.90;;;;;;4982265;28;20218;-90
2021/10/11 10:59:54;;;;;;;1.37;0.90;;;7.00;99.90;;;;;;4983354;28;20265;-90
2021/10/11 11:02:33;;;;;;;3.07;1.07;;;6.90;99.90;;;;;;4982751;28;20224;-89
2021/10/11 11:05:06;;;;;;;3.70;1.00;;;6.90;99.90;;;;;;4982945;28;20284;-90
2021/10/11 11:07:39;;;;;;;2.10;1.07;;;6.90;99.90;;;;;;4988204;28;20258;-91
2021/10/11 11:10:14;;;;;;;2.20;0.80;;;7.00;99.90;;;;;;4999374;28;20216;-91
2021/10/11 11:12:47;;;;;;;2.13;1.03;;;7.00;99.90;;;;;;4999365;28;20230;-92
2021/10/11 11:15:26;;;;;;;3.13;1.13;;;7.00;99.90;;;;;;4998492;28;20202;-90
2021/10/11 11:18:01;;;;;;;2.53;1.20;;;7.00;99.90;;;;;;4972267;28;20213;-90
2021/10/11 11:20:35;;;;;;;3.07;1.20;;;7.00;99.90;;;;;;4971773;28;20211;-88
2021/10/11 11:23:08;;;;;;;3.30;1.00;;;7.00;99.90;;;;;;4971376;28;20274;-89
2021/10/11 11:25:41;;;;;;;3.00;1.00;;;7.00;99.90;;;;;;4980602;28;20239;-91
2021/10/11 11:28:13;;;;;;;1.63;0.70;;;7.00;99.90;;;;;;4979831;28;20315;-91
2021/10/11 11:30:45;;;;;;;1.67;1.00;;;7.00;99.90;;;;;;4982195;28;20209;-91
2021/10/11 11:33:22;;;;;;;2.73;1.17;;;6.90;99.90;;;;;;4986006;28;20206;-91
2021/10/11 11:35:55;;;;;;;4.70;1.07;;;6.90;99.90;;;;;;4988320;28;20211;-90
2021/10/11 11:38:28;;;;;;;1.63;1.07;;;6.90;99.90;;;;;;4980558;28;20230;-91
2021/10/11 11:41:02;;;;;;;4.47;1.10;;;7.00;99.90;;;;;;4979787;28;20211;-91
2021/10/11 11:43:35;;;;;;;2.20;1.30;;;7.00;99.90;;;;;;4979353;28;20226;-91
2021/10/11 11:46:07;;;;;;;1.57;1.00;;;7.00;99.90;;;;;;4963037;28;20288;-90
2021/10/11 11:48:42;;;;;;;1.33;0.90;;;7.00;99.90;;;;;;4975104;28;20203;-90
2021/10/11 11:51:19;;;;;;;2.13;1.00;;;6.90;99.90;;;;;;4987927;28;20203;-90
2021/10/11 11:53:52;;;;;;;2.40;1.20;;;6.90;99.90;;;;;;4987589;28;20222;-90
2021/10/11 11:56:25;;;;;;;2.33;1.40;;;6.90;99.90;;;;;;4980784;28;20237;-90
2021/10/11 11:58:57;;;;;;;2.03;1.23;;;6.90;99.90;;;;;;4980780;28;20216;-90
2021/10/11 12:01:30;;;;;;;3.83;1.00;;;6.90;99.90;;;;;;4980878;28;20223;-90
2021/10/11 12:04:08;;;;;;;4.33;1.30;;;6.80;99.90;;;;;;4979078;28;20199;-90
2021/10/11 12:06:40;;;;;;;3.53;1.63;;;6.80;99.90;;;;;;4977976;28;20214;-90
2021/10/11 12:09:11;;;;;;;2.07;1.30;;;6.80;99.90;;;;;;4978696;28;20220;-90
2021/10/11 12:11:42;;;;;;;2.23;1.20;;;6.80;99.90;;;;;;4979012;28;20234;-90
2021/10/11 12:14:14;;;;;;;2.17;1.00;;;6.80;99.90;;;;;;4978941;28;20230;-90
2021/10/11 12:16:45;;;;;;;2.47;1.03;;;6.80;99.90;;;;;;4977776;28;20220;-90
2021/10/11 12:19:29;;;;;;;3.60;1.20;;;6.80;99.90;;;;;;4958443;28;20212;-91
2021/10/11 12:22:01;;;;;;;3.83;1.20;;;6.70;99.90;;;;;;4959179;28;20211;-90
2021/10/11 12:24:35;;;;;;;4.53;1.13;;;6.70;99.90;;;;;;4959161;28;20211;-91
2021/10/11 12:27:08;;;;;;;2.70;1.10;;;6.70;99.90;;;;;;4969696;28;20235;-91
2021/10/11 12:29:40;;;;;;;2.30;1.00;;;6.60;99.90;;;;;;4978486;28;20211;-91
2021/10/11 12:32:12;;;;;;;2.80;1.10;;;6.70;99.90;;;;;;4977984;28;20235;-91
2021/10/11 12:34:51;;;;;;;1.60;1.00;;;6.60;99.90;;;;;;4979582;28;20195;-91
2021/10/11 12:37:22;;;;;;;2.07;0.87;;;6.60;99.90;;;;;;4976365;28;20368;-91
2021/10/11 12:39:57;;;;;;;2.60;1.07;;;6.60;99.90;;;;;;4978714;28;20209;-91
2021/10/11 12:42:30;;;;;;;2.23;1.50;;;6.60;99.90;;;;;;4978109;28;20220;-91
2021/10/11 12:45:02;;;;;;;2.63;1.40;;;6.50;99.90;;;;;;4991095;28;20222;-91
2021/10/11 12:47:35;;;;;;;2.87;1.17;;;6.50;99.90;;;;;;4973063;28;20215;-90
2021/10/11 12:50:10;;;;;;;1.80;1.10;;;6.40;99.90;;;;;;4967716;28;20270;-91
2021/10/11 12:52:43;;;;;;;1.40;1.17;;;6.30;99.90;;;;;;4973112;28;20233;-90
2021/10/11 12:55:15;;;;;;;3.00;1.33;;;6.30;99.90;;;;;;4984744;28;20293;-91
2021/10/11 12:57:48;;;;;;;2.60;1.03;;;6.30;99.90;;;;;;4970956;28;20215;-89
2021/10/11 13:00:21;;;;;;;2.90;1.10;;;6.10;99.90;;;;;;4968336;28;20211;-90
2021/10/11 13:02:52;;;;;;;2.30;1.30;;;6.00;99.90;;;;;;4977779;28;20229;-90
2021/10/11 13:05:26;;;;;;;3.77;1.27;;;5.90;99.90;;;;;;4976926;28;20242;-90
2021/10/11 13:07:57;;;;;;;3.53;1.10;;;5.90;99.90;;;;;;4977789;28;20369;-89
2021/10/11 13:10:29;;;;;;;3.03;1.00;;;5.90;99.90;;;;;;4976889;28;20239;-89
2021/10/11 13:13:00;;;;;;;1.40;0.87;;;5.90;99.90;;;;;;4978798;28;20254;-90
2021/10/11 13:15:31;;;;;;;3.20;1.07;;;5.80;99.90;;;;;;4977281;28;20692;-89
2021/10/11 13:18:02;;;;;;;2.40;1.40;;;5.70;99.90;;;;;;4977407;28;20735;-90
2021/10/11 13:20:37;;;;;;;4.27;1.20;;;5.70;99.90;;;;;;4991854;28;20247;-89
2021/10/11 13:23:09;;;;;;;1.60;1.23;;;5.60;99.90;;;;;;4995979;28;20217;-90
2021/10/11 13:25:40;;;;;;;2.33;1.20;;;5.60;99.90;;;;;;4978920;28;20221;-91
2021/10/11 13:28:12;;;;;;;2.10;1.13;;;5.60;99.90;;;;;;4981456;28;20207;-90
2021/10/11 13:37:23;;;;;;;2.97;1.10;;;5.40;99.90;;;;;;4978805;28;20246;-90
2021/10/11 14:30:43;;;;;;;3.40;1.70;;;4.90;99.90;;;;;;5049369;27;3344689;-92
2021/10/11 14:33:27;;;;;;;4.93;1.67;;;4.90;99.90;;;;;;5129267;28;20201;-91
2021/10/11 16:00:43;;;;;;;4.83;3.03;;;6.00;99.90;;;;;;4960396;29;20216;-91
2021/10/11 16:03:30;;;;;;;7.90;3.37;;;6.10;99.90;;;;;;4957236;29;20259;-91
2021/10/11 16:06:02;;;;;;;5.70;3.53;;;6.20;99.90;;;;;;4973961;29;20235;-90
2021/10/11 16:08:33;;;;;;;5.57;3.80;;;6.30;99.90;;;;;;4964662;29;20252;-91
2021/10/11 16:13:35;;;;;;;7.83;4.80;;;6.60;99.90;;;;;;5003178;28;20225;-91
2021/10/11 16:16:08;;;;;;;6.17;4.53;;;6.60;99.90;;;;;;4994187;28;20213;-90
2021/10/11 16:18:39;;;;;;;6.63;4.30;;;6.70;99.90;;;;;;5011579;28;20274;-90
2021/10/11 16:21:12;;;;;;;13.17;6.83;;;6.80;99.90;;;;;;5008517;28;20675;-91
2021/10/11 16:23:45;;;;;;;25.70;12.10;;;6.90;99.90;;;;;;5465917;22;20222;-89
2021/10/11 16:26:18;;;;;;;8.80;4.77;;;7.00;99.90;;;;;;5035836;28;20217;-89
2021/10/11 16:28:52;;;;;;;8.17;3.70;;;7.00;99.90;;;;;;5035342;28;20233;-90